Time;durP1;ratioP1;P1;durP2;ratioP2;P2;SDS_P1;SDS_P2;PMS_P1;PMS_P2;Temp;Humidity;BMP_temperature;BMP_pressure;BME280_temperature;BME280_humidity;BME280_pressure;Samples;Min_cycle;Max_cycle;Signal;HPM_P1;HPM_P2
2021/04/16 00:01:49;;;;;;;6.38;4.40;;;;;;;24.36;17.97;96280.03;6204540;23;20017;-57
2021/04/16 00:04:15;;;;;;;6.82;4.55;;;;;;;24.36;18.28;96282.78;6203300;23;20028;-56
2021/04/16 00:06:40;;;;;;;7.20;4.93;;;;;;;24.34;17.99;96281.47;6205156;23;20020;-56
2021/04/16 00:09:06;;;;;;;7.18;4.82;;;;;;;24.32;18.05;96278.22;6204124;23;20012;-57
2021/04/16 00:11:32;;;;;;;6.63;4.57;;;;;;;24.30;18.24;96273.06;6204255;23;20091;-56
2021/04/16 00:13:58;;;;;;;7.70;4.95;;;;;;;24.27;18.30;96271.75;6204489;23;20332;-56
2021/04/16 00:16:24;;;;;;;8.15;4.68;;;;;;;24.24;18.00;96275.13;6203119;23;20456;-57
2021/04/16 00:18:50;;;;;;;7.10;4.70;;;;;;;24.23;18.15;96273.50;6202715;23;20004;-57
2021/04/16 00:21:16;;;;;;;7.20;5.18;;;;;;;24.21;18.00;96274.94;6204461;23;20023;-57
2021/04/16 00:23:41;;;;;;;7.53;4.55;;;;;;;24.19;18.01;96272.50;6205500;23;20012;-57
2021/04/16 00:26:08;;;;;;;6.43;4.20;;;;;;;24.17;18.40;96277.47;6178087;23;20136;-57
2021/04/16 00:28:34;;;;;;;6.93;5.32;;;;;;;24.13;18.30;96265.53;6202645;23;20013;-57
2021/04/16 00:31:02;;;;;;;6.30;3.97;;;;;;;24.12;18.23;96266.66;6177548;23;20020;-57
2021/04/16 00:33:28;;;;;;;5.18;4.38;;;;;;;24.07;18.04;96267.59;6204098;23;20501;-56
2021/04/16 00:35:54;;;;;;;5.93;4.35;;;;;;;24.05;18.32;96260.78;6204321;23;20021;-57
2021/04/16 00:38:20;;;;;;;6.18;4.32;;;;;;;24.03;18.22;96257.56;6203785;23;20739;-57
2021/04/16 00:40:47;;;;;;;7.20;4.55;;;;;;;24.00;18.10;96252.72;6202731;23;20108;-57
2021/04/16 00:43:16;;;;;;;7.35;4.68;;;;;;;23.96;18.00;96258.00;6206090;23;20012;-57
2021/04/16 00:45:41;;;;;;;6.93;4.68;;;;;;;23.93;18.06;96255.06;6179046;23;20024;-57
2021/04/16 00:48:11;;;;;;;7.97;5.30;;;;;;;23.90;18.43;96253.75;6204060;23;20016;-57
2021/04/16 00:50:48;;;;;;;7.47;4.68;;;;;;;23.84;18.23;96235.84;6227960;23;20509;-57
2021/04/16 00:53:15;;;;;;;8.18;4.97;;;;;;;23.83;18.21;96237.75;6178522;23;20066;-57
2021/04/16 00:55:40;;;;;;;6.88;4.85;;;;;;;23.79;18.01;96235.97;6203203;23;20012;-56
2021/04/16 00:58:06;;;;;;;8.32;5.53;;;;;;;23.75;18.19;96235.72;6177584;23;20100;-56
2021/04/16 01:00:32;;;;;;;6.97;4.90;;;;;;;23.72;18.40;96241.00;6202737;23;20519;-56
2021/04/16 01:02:57;;;;;;;7.40;5.40;;;;;;;23.66;18.39;96232.91;6203840;23;20012;-56
2021/04/16 01:05:23;;;;;;;7.68;5.07;;;;;;;23.63;18.29;96233.50;6177025;23;20013;-56
2021/04/16 01:07:50;;;;;;;6.97;5.22;;;;;;;23.60;18.13;96238.81;6203863;23;20067;-56
2021/04/16 01:10:16;;;;;;;6.45;4.72;;;;;;;23.56;18.20;96235.06;6178489;23;20023;-55
2021/04/16 01:12:42;;;;;;;6.88;4.97;;;;;;;23.53;18.08;96235.66;6205992;23;20724;-56
2021/04/16 01:15:16;;;;;;;5.97;4.88;;;;;;;23.50;18.12;96237.09;6204463;23;20020;-56
2021/04/16 01:17:43;;;;;;;;;;;;;;;23.45;18.18;96240.75;6206452;23;20016;-55
2021/04/16 01:20:14;;;;;;;5.43;4.10;;;;;;;23.41;18.40;96234.28;6204242;23;19919;-56
2021/04/16 01:22:52;;;;;;;6.05;4.65;;;;;;;23.36;18.46;96230.84;6204764;23;20115;-56
2021/04/16 01:25:18;;;;;;;4.40;3.63;;;;;;;23.35;18.73;96237.44;6205384;23;20016;-56
2021/04/16 01:27:44;;;;;;;5.45;4.10;;;;;;;23.31;18.55;96239.97;6179682;23;20021;-56
2021/04/16 01:30:12;;;;;;;5.28;4.10;;;;;;;23.28;18.59;96237.84;6205970;23;20017;-56
2021/04/16 01:32:38;;;;;;;6.28;4.03;;;;;;;23.25;18.71;96241.16;6203605;23;20017;-56
2021/04/16 01:35:12;;;;;;;5.25;4.00;;;;;;;23.22;18.54;96233.59;6203798;23;20135;-57
2021/04/16 01:37:37;;;;;;;5.78;3.95;;;;;;;23.19;18.46;96232.25;6205864;23;20047;-56
2021/04/16 01:40:05;;;;;;;4.55;3.75;;;;;;;23.16;18.34;96237.53;6204076;23;20016;-57
2021/04/16 01:42:31;;;;;;;4.32;3.53;;;;;;;23.12;18.64;96228.34;6208525;23;20016;-56
2021/04/16 01:44:56;;;;;;;4.60;3.75;;;;;;;23.10;18.60;96238.75;6204633;23;20383;-57
2021/04/16 01:47:22;;;;;;;5.07;4.15;;;;;;;23.08;18.62;96246.44;6205343;23;20017;-58
2021/04/16 01:49:49;;;;;;;4.30;3.90;;;;;;;23.04;18.71;96241.56;6205639;23;20024;-58
2021/04/16 01:52:26;;;;;;;5.35;4.00;;;;;;;23.01;18.73;96242.19;6204914;23;20016;-59
2021/04/16 01:54:53;;;;;;;5.85;4.68;;;;;;;22.99;18.67;96236.19;6205550;23;20005;-57
2021/04/16 01:57:21;;;;;;;5.18;4.30;;;;;;;22.97;18.48;96232.97;6204327;23;20013;-57
2021/04/16 01:59:47;;;;;;;5.35;4.13;;;;;;;22.95;18.52;96231.66;6203774;23;20036;-57
2021/04/16 02:02:15;;;;;;;5.50;4.18;;;;;;;22.90;18.65;96224.34;6204262;23;20020;-58
2021/04/16 02:04:41;;;;;;;5.45;4.13;;;;;;;22.87;18.59;96220.28;6205773;23;20112;-58
2021/04/16 02:07:07;;;;;;;4.18;3.63;;;;;;;22.85;18.47;96233.44;6205298;23;20466;-58
2021/04/16 02:09:34;;;;;;;4.55;3.92;;;;;;;22.81;18.60;96221.50;6203538;23;20092;-57
2021/04/16 02:11:59;;;;;;;5.38;4.60;;;;;;;22.80;18.74;96219.09;6203413;23;20053;-58
2021/04/16 02:14:26;;;;;;;5.82;4.40;;;;;;;22.77;18.68;96219.69;6205431;23;20019;-58
2021/04/16 02:16:56;;;;;;;5.22;4.38;;;;;;;22.74;18.78;96217.56;6204115;23;20013;-57
2021/04/16 02:19:21;;;;;;;4.88;4.00;;;;;;;22.71;18.73;96221.69;6179247;23;20012;-58
2021/04/16 02:21:47;;;;;;;4.32;3.80;;;;;;;22.69;18.61;96214.91;6203894;23;20038;-58
2021/04/16 02:24:13;;;;;;;6.05;4.55;;;;;;;22.65;18.59;96212.81;6204698;23;20012;-57
2021/04/16 02:26:39;;;;;;;5.13;4.25;;;;;;;22.62;18.76;96207.94;6178987;23;20071;-58
2021/04/16 02:29:05;;;;;;;4.65;4.00;;;;;;;22.61;18.70;96200.88;6179064;23;20346;-57
2021/04/16 02:31:31;;;;;;;4.75;4.25;;;;;;;22.57;18.58;96210.75;6229177;23;20012;-57
2021/04/16 02:33:56;;;;;;;3.83;3.40;;;;;;;22.53;18.71;96207.03;6203705;23;20630;-57
2021/04/16 02:36:24;;;;;;;4.63;3.95;;;;;;;22.52;18.72;96207.31;6205490;23;20019;-57
2021/04/16 02:38:56;;;;;;;4.53;3.70;;;;;;;22.50;18.77;96213.06;6203571;23;20714;-57
2021/04/16 02:41:22;;;;;;;3.90;3.50;;;;;;;22.47;18.70;96202.75;6203343;23;20432;-58
2021/04/16 02:43:48;;;;;;;4.68;3.78;;;;;;;22.43;18.78;96209.94;6205778;23;20008;-57
2021/04/16 02:46:13;;;;;;;4.20;3.80;;;;;;;22.40;18.88;96207.78;6204137;23;20024;-57
2021/04/16 02:48:39;;;;;;;4.38;3.92;;;;;;;22.37;18.93;96203.75;6178078;23;20017;-57
2021/04/16 02:51:04;;;;;;;4.40;4.00;;;;;;;22.35;18.98;96207.88;6204658;23;20220;-58
2021/04/16 02:53:30;;;;;;;4.57;3.83;;;;;;;22.32;18.69;96203.84;6204985;23;20055;-57
2021/04/16 02:55:55;;;;;;;4.38;3.55;;;;;;;22.30;19.04;96213.44;6204214;23;20063;-57
2021/04/16 02:58:21;;;;;;;3.78;3.38;;;;;;;22.25;18.79;96206.97;6177968;23;20353;-58
2021/04/16 03:00:46;;;;;;;4.63;3.40;;;;;;;22.24;19.08;96216.25;6204784;23;20016;-58
2021/04/16 03:03:12;;;;;;;4.07;3.30;;;;;;;22.22;18.70;96212.97;6205835;23;20079;-57
2021/04/16 03:05:38;;;;;;;4.18;3.40;;;;;;;22.20;18.98;96204.28;6205013;23;20020;-57
2021/04/16 03:08:03;;;;;;;3.45;3.15;;;;;;;22.18;18.76;96217.41;6204155;23;20084;-58
2021/04/16 03:10:35;;;;;;;3.63;3.33;;;;;;;22.16;18.78;96213.34;6203650;23;20028;-57
2021/04/16 03:13:00;;;;;;;4.00;3.45;;;;;;;22.13;18.89;96212.03;6202741;23;20374;-58
2021/04/16 03:15:26;;;;;;;3.05;2.75;;;;;;;22.10;18.82;96211.81;6203654;23;20016;-57
2021/04/16 03:17:52;;;;;;;3.83;3.25;;;;;;;22.05;18.96;96199.06;6203501;23;20042;-57
2021/04/16 03:20:19;;;;;;;3.83;3.28;;;;;;;22.06;18.96;96204.22;6203025;23;20078;-57
2021/04/16 03:22:45;;;;;;;4.00;3.42;;;;;;;22.02;19.00;96203.22;6177813;23;20087;-58
2021/04/16 03:25:11;;;;;;;4.70;3.65;;;;;;;22.02;19.02;96199.66;6205417;23;20019;-57
2021/04/16 03:27:37;;;;;;;3.38;3.05;;;;;;;21.99;19.00;96205.72;6202420;23;20020;-57
2021/04/16 03:30:08;;;;;;;3.65;3.22;;;;;;;21.97;19.06;96200.56;6202684;23;20451;-58
2021/04/16 03:32:33;;;;;;;4.38;3.63;;;;;;;21.95;19.02;96199.25;6204641;23;20017;-58
2021/04/16 03:34:59;;;;;;;3.55;2.97;;;;;;;21.92;18.99;96200.66;6202958;23;20012;-57
2021/04/16 03:37:24;;;;;;;3.65;3.35;;;;;;;21.91;18.99;96201.75;6202392;23;20020;-57
2021/04/16 03:39:50;;;;;;;4.00;3.35;;;;;;;21.88;19.13;96199.63;6202767;23;20058;-57
2021/04/16 03:42:16;;;;;;;3.20;2.90;;;;;;;21.86;18.94;96199.09;6202923;23;20023;-56
2021/04/16 03:44:42;;;;;;;3.30;3.00;;;;;;;21.84;19.03;96199.41;6181208;23;20021;-57
2021/04/16 03:47:08;;;;;;;3.08;2.78;;;;;;;21.82;18.95;96196.16;6204390;23;20070;-57
2021/04/16 03:49:33;;;;;;;3.30;2.92;;;;;;;21.80;19.17;96197.56;6202966;23;20447;-56
2021/04/16 03:52:00;;;;;;;3.05;2.75;;;;;;;21.78;19.22;96200.56;6204200;23;20016;-57
2021/04/16 03:54:26;;;;;;;3.00;2.65;;;;;;;21.76;19.04;96202.78;6202784;23;20147;-57
2021/04/16 03:56:52;;;;;;;3.42;2.78;;;;;;;21.74;18.97;96207.72;6204391;23;20009;-57
2021/04/16 03:59:18;;;;;;;2.53;2.15;;;;;;;21.72;19.15;96206.41;6202798;23;20023;-57
2021/04/16 04:01:44;;;;;;;2.72;2.53;;;;;;;21.70;19.07;96203.97;6203363;23;20019;-57
2021/04/16 04:04:10;;;;;;;3.20;2.53;;;;;;;21.67;19.12;96207.31;6202607;23;20612;-57
2021/04/16 04:06:35;;;;;;;2.78;2.47;;;;;;;21.65;19.00;96201.34;6201931;23;20084;-58
2021/04/16 04:09:02;;;;;;;2.35;2.13;;;;;;;21.63;19.16;96203.53;6203982;23;20355;-57
2021/04/16 04:11:28;;;;;;;2.38;2.17;;;;;;;21.60;19.17;96201.38;6202270;23;20023;-58
2021/04/16 04:13:54;;;;;;;2.45;2.25;;;;;;;21.57;19.31;96202.78;6201861;23;20880;-57
2021/04/16 04:16:20;;;;;;;2.42;2.22;;;;;;;21.55;19.19;96204.19;6204214;23;20024;-57
2021/04/16 04:18:45;;;;;;;2.67;2.47;;;;;;;21.53;19.11;96206.41;6202469;23;20016;-59
2021/04/16 04:21:11;;;;;;;2.90;2.05;;;;;;;21.51;19.17;96205.88;6204981;23;20020;-58
2021/04/16 04:23:36;;;;;;;2.30;2.10;;;;;;;21.49;19.09;96213.53;6204315;23;20023;-58
2021/04/16 04:26:02;;;;;;;2.33;2.20;;;;;;;21.47;19.09;96213.03;6202996;23;20403;-58
2021/04/16 04:28:28;;;;;;;2.15;1.98;;;;;;;21.43;19.16;96213.59;6177992;23;20016;-58
2021/04/16 04:30:53;;;;;;;2.22;2.03;;;;;;;21.42;19.27;96208.47;6204287;23;20009;-58
2021/04/16 04:33:19;;;;;;;1.80;1.70;;;;;;;21.39;19.28;96207.09;6204454;23;20055;-58
2021/04/16 04:35:45;;;;;;;2.22;2.03;;;;;;;21.36;19.09;96204.97;6204685;23;20017;-58
2021/04/16 04:38:11;;;;;;;1.85;1.70;;;;;;;21.34;19.14;96206.38;6205132;23;20015;-57
2021/04/16 04:40:36;;;;;;;2.88;2.00;;;;;;;21.32;19.36;96203.13;6204104;23;20094;-58
2021/04/16 04:43:02;;;;;;;1.95;1.85;;;;;;;21.29;19.33;96204.50;6202974;23;20012;-57
2021/04/16 04:45:28;;;;;;;1.75;1.65;;;;;;;21.26;19.18;96199.66;6180656;23;20020;-57
2021/04/16 04:47:54;;;;;;;1.90;1.80;;;;;;;21.24;19.41;96207.31;6179855;23;20046;-58
2021/04/16 04:50:19;;;;;;;2.15;1.63;;;;;;;21.20;19.17;96204.34;6205050;23;20031;-58
2021/04/16 04:52:45;;;;;;;2.03;1.83;;;;;;;21.18;19.22;96213.91;6155748;23;20044;-58
2021/04/16 04:55:16;;;;;;;1.90;1.80;;;;;;;21.13;19.34;96211.25;6207303;23;20083;-58
2021/04/16 04:57:42;;;;;;;1.80;1.70;;;;;;;21.11;19.08;96221.63;6180381;23;20016;-57
2021/04/16 05:00:09;;;;;;;1.98;1.88;;;;;;;21.08;19.49;96222.19;6204715;23;20483;-57
2021/04/16 05:02:35;;;;;;;1.80;1.70;;;;;;;21.05;19.33;96226.31;6206088;23;20325;-58
2021/04/16 05:05:00;;;;;;;2.90;1.90;;;;;;;21.02;19.30;96222.28;6205518;23;20040;-58
2021/04/16 05:07:26;;;;;;;1.90;1.80;;;;;;;20.98;19.41;96223.97;6204273;23;20012;-57
2021/04/16 05:09:52;;;;;;;1.98;1.80;;;;;;;20.97;19.36;96227.75;6179602;23;20039;-57
2021/04/16 05:12:18;;;;;;;1.65;1.55;;;;;;;20.94;19.32;96233.81;6204292;23;20018;-57
2021/04/16 05:14:43;;;;;;;1.65;1.55;;;;;;;20.90;19.43;96232.75;6206885;23;20360;-58
2021/04/16 05:17:09;;;;;;;1.55;1.45;;;;;;;20.87;19.27;96232.53;6178497;23;20056;-58
2021/04/16 05:19:35;;;;;;;1.80;1.70;;;;;;;20.83;19.39;96233.09;6204497;23;20447;-58
2021/04/16 05:22:03;;;;;;;1.88;1.40;;;;;;;20.80;19.45;96232.88;6205881;23;20016;-57
2021/04/16 05:24:32;;;;;;;1.60;1.42;;;;;;;20.75;19.67;96228.28;6180264;23;20432;-58
2021/04/16 05:27:14;;;;;;;1.60;1.50;;;;;;;20.70;19.51;96228.34;6205739;23;20086;-58
2021/04/16 05:29:40;;;;;;;1.52;1.42;;;;;;;20.67;19.48;96234.38;6155293;23;20528;-58
2021/04/16 05:32:06;;;;;;;1.42;1.33;;;;;;;20.64;19.43;96229.47;6204178;23;20084;-58
2021/04/16 05:34:32;;;;;;;1.83;1.73;;;;;;;20.60;19.45;96232.00;6203175;23;20020;-58
2021/04/16 05:36:58;;;;;;;1.60;1.50;;;;;;;20.56;19.76;96235.50;6205375;23;20017;-58
2021/04/16 05:39:24;;;;;;;2.33;1.50;;;;;;;20.54;19.86;96233.09;6203878;23;20561;-57
2021/04/16 05:41:49;;;;;;;6.10;1.80;;;;;;;20.50;19.84;96234.78;6205719;23;20009;-57
2021/04/16 05:44:15;;;;;;;4.63;2.20;;;;;;;20.49;20.10;96240.50;6205997;23;20086;-58
2021/04/16 05:46:41;;;;;;;9.52;2.55;;;;;;;20.45;20.03;96245.69;6180374;23;20016;-57
2021/04/16 05:49:06;;;;;;;4.85;2.40;;;;;;;20.42;20.05;96249.81;6205496;23;20087;-56
2021/04/16 05:51:32;;;;;;;8.50;5.20;;;;;;;20.39;19.85;96244.94;6204326;23;20070;-58
2021/04/16 05:53:58;;;;;;;6.00;3.00;;;;;;;20.37;20.19;96246.31;6205196;23;20478;-58
2021/04/16 05:56:23;;;;;;;4.70;3.10;;;;;;;20.33;20.12;96247.97;6205167;23;20008;-57
2021/04/16 05:58:49;;;;;;;4.07;2.88;;;;;;;20.31;20.03;96252.88;6203729;23;20012;-57
2021/04/16 06:01:15;;;;;;;4.97;2.85;;;;;;;20.27;20.03;96251.81;6206426;23;20136;-58
2021/04/16 06:03:42;;;;;;;4.82;2.80;;;;;;;20.24;20.26;96254.03;6206165;23;20074;-57
2021/04/16 06:06:07;;;;;;;3.67;2.60;;;;;;;20.22;20.26;96253.50;6203831;23;20046;-57
2021/04/16 06:08:34;;;;;;;4.63;2.78;;;;;;;20.20;20.33;96254.88;6205552;23;20023;-58
2021/04/16 06:11:00;;;;;;;2.47;2.05;;;;;;;20.19;20.32;96254.06;6203867;23;20012;-58
2021/04/16 06:13:26;;;;;;;6.20;2.40;;;;;;;20.18;20.50;96252.47;6202823;23;20036;-57
2021/04/16 06:15:52;;;;;;;3.53;2.42;;;;;;;20.16;20.57;96254.66;6178468;23;20016;-58
2021/04/16 06:18:19;;;;;;;5.68;2.50;;;;;;;20.16;20.71;96254.66;6205139;23;20012;-58
2021/04/16 06:20:45;;;;;;;5.05;2.00;;;;;;;20.15;20.66;96252.22;6206854;23;20016;-59
2021/04/16 06:23:10;;;;;;;6.40;2.40;;;;;;;20.15;20.99;96255.75;6206852;23;20340;-58
2021/04/16 06:25:36;;;;;;;3.58;1.90;;;;;;;20.17;20.76;96250.03;6179238;23;20047;-58
2021/04/16 06:28:02;;;;;;;3.03;2.20;;;;;;;20.17;21.03;96250.81;6205583;23;20016;-58
2021/04/16 06:30:28;;;;;;;3.88;2.45;;;;;;;20.19;20.96;96247.84;6205451;23;20439;-58
2021/04/16 06:33:06;;;;;;;2.22;2.03;;;;;;;20.20;21.03;96247.56;6205193;23;20044;-58
2021/04/16 06:35:32;;;;;;;1.85;1.70;;;;;;;20.25;20.89;96263.00;6203806;23;20420;-58
2021/04/16 06:37:58;;;;;;;8.10;2.40;;;;;;;20.28;20.72;96250.75;6179181;23;20020;-60
2021/04/16 06:40:24;;;;;;;2.50;2.03;;;;;;;20.30;20.98;96252.06;6203659;23;20024;-59
2021/04/16 06:42:49;;;;;;;2.45;2.15;;;;;;;20.32;20.76;96255.31;6205408;23;20079;-59
2021/04/16 06:45:24;;;;;;;5.68;2.35;;;;;;;20.33;20.72;96250.69;6206476;23;20070;-58
2021/04/16 06:47:57;;;;;;;3.28;2.20;;;;;;;20.37;20.81;96243.59;6178607;23;20021;-59
2021/04/16 06:50:24;;;;;;;4.63;3.03;;;;;;;20.38;20.70;96245.22;6203516;23;20036;-59
2021/04/16 06:52:56;;;;;;;5.93;2.70;;;;;;;20.41;20.70;96253.63;6178880;23;20550;-59
2021/04/16 06:55:27;;;;;;;3.90;2.65;;;;;;;20.43;20.76;96253.31;6203401;23;20016;-59
2021/04/16 06:58:08;;;;;;;4.05;3.08;;;;;;;20.44;20.75;96258.50;6179356;23;20127;-59
2021/04/16 07:01:01;;;;;;;6.03;4.30;;;;;;;20.38;21.23;96261.53;6204501;23;20046;-58
2021/04/16 07:03:29;;;;;;;3.78;2.95;;;;;;;20.29;21.10;96253.19;6204623;23;20016;-57
2021/04/16 07:06:09;;;;;;;5.25;2.75;;;;;;;20.29;21.01;96255.06;6178863;23;20513;-57
2021/04/16 07:08:50;;;;;;;3.72;2.90;;;;;;;20.29;21.30;96258.63;6180640;23;20260;-58
2021/04/16 07:11:26;;;;;;;3.20;2.95;;;;;;;20.32;21.19;96260.75;6203134;23;20352;-58
2021/04/16 07:13:51;;;;;;;4.47;3.53;;;;;;;20.33;21.16;96262.41;6205183;23;20092;-58
2021/04/16 07:16:18;;;;;;;3.63;3.20;;;;;;;20.35;21.13;96260.22;6178957;23;20024;-57
2021/04/16 07:18:45;;;;;;;3.15;2.92;;;;;;;20.37;21.13;96274.34;6179963;23;20437;-59
2021/04/16 07:21:13;;;;;;;3.17;2.97;;;;;;;20.37;21.04;96266.19;6179123;23;20012;-59
2021/04/16 07:23:52;;;;;;;3.40;3.10;;;;;;;20.40;21.10;96273.75;6178738;23;20012;-60
2021/04/16 07:26:24;;;;;;;4.57;3.00;;;;;;;20.42;21.13;96273.47;6205541;23;20027;-60
2021/04/16 07:28:52;;;;;;;3.95;3.30;;;;;;;20.43;21.03;96270.47;6204712;23;20070;-60
2021/04/16 07:31:27;;;;;;;4.57;3.45;;;;;;;20.45;21.17;96265.56;6178210;23;20325;-59
2021/04/16 07:33:53;;;;;;;3.28;3.08;;;;;;;20.48;21.46;96266.91;6205234;23;20016;-60
2021/04/16 07:36:26;;;;;;;3.67;3.22;;;;;;;20.49;21.49;96263.06;6204999;23;20448;-60
2021/04/16 07:39:01;;;;;;;6.55;4.57;;;;;;;20.49;21.51;96268.50;6205166;23;20017;-58
2021/04/16 07:41:29;;;;;;;6.93;4.93;;;;;;;20.50;21.40;96261.97;6204317;23;20019;-58
2021/04/16 07:43:56;;;;;;;5.80;4.88;;;;;;;20.49;21.13;96262.25;6178964;23;20022;-58
2021/04/16 07:46:28;;;;;;;5.00;4.50;;;;;;;20.49;21.58;96263.06;6178612;23;20023;-59
2021/04/16 07:49:17;;;;;;;3.78;3.47;;;;;;;20.49;21.26;96265.78;6204947;23;20073;-58
2021/04/16 07:51:45;;;;;;;6.70;3.80;;;;;;;20.50;21.18;96270.16;6154992;23;20019;-59
2021/04/16 07:54:19;;;;;;;5.18;3.47;;;;;;;20.51;21.27;96271.75;6204635;23;20082;-59
2021/04/16 07:56:45;;;;;;;5.72;3.63;;;;;;;20.51;21.08;96268.22;6204194;23;20479;-58
2021/04/16 07:59:15;;;;;;;3.92;3.63;;;;;;;20.52;21.38;96278.84;6205912;23;20523;-60
2021/04/16 08:01:45;;;;;;;3.90;3.40;;;;;;;20.54;21.46;96276.63;6203826;23;20032;-59
2021/04/16 08:04:19;;;;;;;5.75;3.22;;;;;;;20.54;21.20;96275.81;6203809;23;20013;-58
2021/04/16 08:06:47;;;;;;;3.50;3.20;;;;;;;20.53;21.28;96271.47;6205368;23;20430;-59
2021/04/16 08:09:38;;;;;;;4.28;3.15;;;;;;;20.53;21.31;96280.44;6203969;23;20024;-58
2021/04/16 08:12:07;;;;;;;3.97;3.10;;;;;;;20.55;21.04;96278.25;6201564;23;20372;-59
2021/04/16 08:14:38;;;;;;;3.47;2.95;;;;;;;20.54;21.11;96271.19;6204644;23;20016;-59
2021/04/16 08:17:23;;;;;;;3.85;2.70;;;;;;;20.55;21.11;96272.00;6179002;23;20038;-58
2021/04/16 08:19:48;;;;;;;4.90;3.17;;;;;;;20.57;21.37;96277.97;6202055;23;20023;-59
2021/04/16 08:22:21;;;;;;;5.03;2.88;;;;;;;20.58;21.41;96272.28;6205089;23;20013;-58
2021/04/16 08:25:08;;;;;;;4.00;3.63;;;;;;;20.57;21.33;96270.63;6202894;23;20480;-58
2021/04/16 08:27:38;;;;;;;4.43;3.05;;;;;;;20.60;21.20;96278.25;6179824;23;20016;-58
2021/04/16 08:30:22;;;;;;;3.47;2.70;;;;;;;20.61;21.16;96277.13;6203378;23;20143;-59
2021/04/16 08:33:10;;;;;;;4.43;2.88;;;;;;;20.63;21.00;96276.84;6204438;23;20019;-59
2021/04/16 08:35:45;;;;;;;3.25;2.58;;;;;;;20.61;21.11;96284.50;6201092;23;20017;-58
2021/04/16 08:38:15;;;;;;;3.58;2.92;;;;;;;20.60;20.93;96278.25;6204893;23;20015;-59
2021/04/16 08:40:42;;;;;;;3.05;2.70;;;;;;;20.59;21.27;96282.06;6179829;23;20012;-59
2021/04/16 08:43:11;;;;;;;3.03;2.72;;;;;;;20.59;21.05;96286.69;6203023;23;20371;-58
2021/04/16 08:45:37;;;;;;;3.58;2.42;;;;;;;20.57;20.73;96281.50;6178647;23;20013;-58
2021/04/16 08:48:13;;;;;;;3.92;2.80;;;;;;;20.55;21.14;96289.13;6203070;23;20100;-59
2021/04/16 08:50:45;;;;;;;4.88;2.60;;;;;;;20.54;21.05;96295.69;6203413;23;20013;-58
2021/04/16 08:53:11;;;;;;;3.10;2.67;;;;;;;20.53;21.12;96299.50;6203698;23;20424;-58
2021/04/16 08:55:44;;;;;;;2.80;2.60;;;;;;;20.52;21.34;96287.00;6202753;23;20167;-58
2021/04/16 08:58:32;;;;;;;3.67;2.72;;;;;;;20.52;21.13;96299.78;6178819;23;20016;-58
2021/04/16 09:01:14;;;;;;;3.15;2.70;;;;;;;20.50;20.92;96299.25;6202621;23;20084;-58
2021/04/16 09:03:51;;;;;;;3.08;2.78;;;;;;;20.48;21.01;96294.09;6202436;23;20016;-59
2021/04/16 09:06:22;;;;;;;3.20;2.50;;;;;;;20.48;21.16;96293.28;6204353;23;20091;-58
2021/04/16 09:08:48;;;;;;;3.53;3.00;;;;;;;20.44;21.03;96293.06;6205522;23;20043;-58
2021/04/16 09:11:41;;;;;;;3.42;2.92;;;;;;;20.45;21.30;96289.22;6179475;23;20009;-59
2021/04/16 09:14:25;;;;;;;5.45;3.45;;;;;;;20.43;21.33;96289.53;6157588;23;20017;-59
2021/04/16 09:16:54;;;;;;;3.55;2.92;;;;;;;20.43;21.23;96294.13;6203306;23;20068;-58
2021/04/16 09:19:23;;;;;;;5.95;3.35;;;;;;;20.42;21.14;96289.81;6203426;23;20013;-59
2021/04/16 09:22:04;;;;;;;5.75;3.30;;;;;;;20.39;21.20;96293.06;6203565;23;20087;-58
2021/04/16 09:24:41;;;;;;;3.83;3.42;;;;;;;20.39;20.99;96290.34;6203688;23;20012;-58
2021/04/16 09:27:13;;;;;;;5.05;3.10;;;;;;;20.40;21.12;96292.00;6203792;23;20035;-58
2021/04/16 09:29:39;;;;;;;6.07;3.47;;;;;;;20.40;21.29;96289.28;6178535;23;20009;-59
2021/04/16 09:32:41;;;;;;;6.60;3.63;;;;;;;20.38;21.45;96286.03;6203276;23;20279;-58
2021/04/16 09:35:06;;;;;;;6.20;4.07;;;;;;;20.39;21.29;96293.06;6205336;23;20058;-58
2021/04/16 09:37:34;;;;;;;5.60;3.10;;;;;;;20.37;21.72;96290.66;6205802;23;20040;-59
2021/04/16 09:40:26;;;;;;;4.55;3.25;;;;;;;20.37;21.34;96287.94;6179739;23;20008;-58
2021/04/16 09:43:18;;;;;;;5.75;3.30;;;;;;;20.36;21.67;96289.03;6205863;23;20067;-59
2021/04/16 09:45:49;;;;;;;4.63;3.22;;;;;;;20.34;21.54;96291.22;6184254;23;20032;-58
2021/04/16 09:48:17;;;;;;;12.52;8.80;;;;;;;20.37;21.56;96293.38;6207212;23;20012;-59
2021/04/16 09:50:58;;;;;;;9.40;6.78;;;;;;;20.36;21.63;96293.66;6205280;23;20091;-59
2021/04/16 09:53:28;;;;;;;7.57;5.20;;;;;;;20.36;21.45;96290.94;6205673;23;20012;-59
2021/04/16 09:56:00;;;;;;;8.50;5.35;;;;;;;20.37;21.53;96292.56;6205216;23;20455;-58
2021/04/16 09:58:35;;;;;;;7.72;5.38;;;;;;;20.37;21.42;96293.38;6205149;23;20075;-59
2021/04/16 10:01:00;;;;;;;7.57;4.88;;;;;;;20.37;21.54;96290.66;6204827;23;20020;-58
2021/04/16 10:03:32;;;;;;;6.82;4.82;;;;;;;20.38;21.55;96295.00;6205480;23;20698;-58
2021/04/16 10:05:58;;;;;;;6.95;4.97;;;;;;;20.41;21.34;96294.44;6202849;23;20574;-58
2021/04/16 10:08:26;;;;;;;7.35;5.10;;;;;;;20.42;21.33;96300.69;6203462;23;20452;-57
2021/04/16 10:10:52;;;;;;;5.72;4.78;;;;;;;20.43;21.51;96294.13;6205251;23;20028;-57
2021/04/16 10:13:24;;;;;;;8.05;5.88;;;;;;;20.43;21.44;96284.09;6204030;23;20356;-57
2021/04/16 10:15:52;;;;;;;6.40;5.10;;;;;;;20.47;21.39;96292.47;6178881;23;20027;-59
2021/04/16 10:18:17;;;;;;;5.60;4.95;;;;;;;20.51;21.50;96295.44;6203523;23;20472;-59
2021/04/16 10:20:58;;;;;;;5.50;4.95;;;;;;;20.52;21.47;96286.16;6206489;23;20008;-59
2021/04/16 10:23:39;;;;;;;5.53;5.03;;;;;;;20.56;21.23;96289.94;6204035;23;20012;-59
2021/04/16 11:45:10;;;;;;;3.50;3.20;;;;;;;22.36;20.01;96253.16;6202988;23;20020;-58
2021/04/16 12:39:33;;;;;;;1.90;1.70;;;;;;;24.00;18.92;96248.03;6201166;23;19979;-56
2021/04/16 12:41:59;;;;;;;1.75;1.65;;;;;;;24.04;18.95;96240.03;6202735;23;20020;-57
2021/04/16 12:44:35;;;;;;;2.30;1.73;;;;;;;24.07;19.04;96242.13;6151685;23;20663;-57
2021/04/16 12:47:05;;;;;;;2.22;2.03;;;;;;;24.09;18.93;96234.44;6200916;23;20016;-57
2021/04/16 12:49:31;;;;;;;2.55;1.80;;;;;;;24.13;18.93;96245.56;6151945;23;20009;-57
2021/04/16 12:51:57;;;;;;;2.85;1.85;;;;;;;24.14;19.05;96239.78;6201857;23;20015;-59
2021/04/16 12:54:22;;;;;;;5.60;3.67;;;;;;;24.15;19.24;96237.88;6202513;23;20023;-58
2021/04/16 12:56:50;;;;;;;5.65;2.60;;;;;;;24.07;19.53;96233.94;6204763;23;20015;-57
2021/04/16 12:59:25;;;;;;;4.97;2.65;;;;;;;23.99;19.65;96229.19;6203220;23;20023;-58
2021/04/16 13:01:51;;;;;;;3.03;2.38;;;;;;;23.93;19.49;96235.91;6203710;23;20008;-58
2021/04/16 13:04:19;;;;;;;6.82;3.25;;;;;;;23.84;19.46;96238.56;6177806;23;20044;-57
2021/04/16 13:06:45;;;;;;;11.07;2.83;;;;;;;23.78;19.89;96226.13;6180661;23;20013;-57
2021/04/16 13:09:12;;;;;;;5.40;2.67;;;;;;;23.73;19.89;96235.22;6180793;23;20017;-57
2021/04/16 13:11:38;;;;;;;3.90;2.15;;;;;;;23.69;19.88;96217.81;6205938;23;20313;-56
2021/04/16 13:14:04;;;;;;;7.78;2.30;;;;;;;23.67;19.90;96211.84;6206011;23;20044;-59
2021/04/16 13:16:30;;;;;;;3.55;2.00;;;;;;;23.65;20.26;96211.34;6204802;23;20016;-59
2021/04/16 13:18:57;;;;;;;5.78;2.53;;;;;;;23.61;20.01;96213.91;6202476;23;20017;-59
2021/04/16 13:21:36;;;;;;;3.70;2.22;;;;;;;23.56;19.84;96215.94;6177380;23;20091;-60
2021/04/16 13:24:02;;;;;;;8.95;2.67;;;;;;;23.58;19.87;96217.25;6178273;23;20012;-58
2021/04/16 13:26:28;;;;;;;5.72;2.20;;;;;;;23.56;20.08;96208.53;6203845;23;20059;-58
2021/04/16 13:28:54;;;;;;;4.50;1.60;;;;;;;23.58;19.61;96217.25;6203510;23;20036;-58
2021/04/16 13:31:20;;;;;;;3.40;1.70;;;;;;;23.62;19.82;96214.72;6204994;23;20091;-58
2021/04/16 13:33:46;;;;;;;4.97;1.88;;;;;;;23.68;19.75;96213.47;6180062;23;20017;-59
2021/04/16 13:36:19;;;;;;;3.28;1.70;;;;;;;23.72;19.74;96211.75;6207560;23;20020;-58
2021/04/16 13:38:46;;;;;;;4.03;1.63;;;;;;;23.76;19.41;96210.03;6205268;23;20428;-56
2021/04/16 13:41:11;;;;;;;7.72;3.78;;;;;;;23.80;19.37;96215.69;6205571;23;20126;-58
2021/04/16 13:43:37;;;;;;;7.60;3.97;;;;;;;23.82;19.71;96199.78;6205460;23;20020;-59
2021/04/16 13:46:05;;;;;;;8.25;3.00;;;;;;;23.84;19.54;96206.56;6204091;23;20466;-61
2021/04/16 13:48:30;;;;;;;7.05;2.42;;;;;;;23.85;19.38;96194.50;6203783;23;20058;-59
2021/04/16 13:50:56;;;;;;;6.05;2.55;;;;;;;23.85;19.46;96199.97;6203481;23;20044;-58
2021/04/16 13:53:21;;;;;;;5.22;2.40;;;;;;;23.86;19.33;96203.50;6203944;23;20377;-58